Aérodrome :
LOGIN :

S'inscrire | Disclaimer

   EN    FR    IT 

 










Légende :    VFR   VFR Marginal   IFR   IFR Intensif   IFR Très Intensif
Visi : 
Plafond : 
>= 8 km
>= 3000ft
5 à 8 km
1000 à 3000 ft
1500m à 5 km
500 à 1000 ft
800 à 1500m
200 à 500 ft
< 800m
< 200 ft
Symboles :   Orages  Brouillard  Fortes neiges  Fortes précipitations  Vent > 20 kt
SIGMETs :   Divers  Orages  Givrage  Turbulence  Onde Orograph.  Cendres Volcan.






- Altitude de l'aérodrome : 1521 ft
- Code IATA : NCY


LFLP - Annecy

DERNIER METAR :
  • 210230Z AUTO 25005KT 210V270 5000 RA BR FEW013/// SCT020/// BKN025/// ///TCU 14/13 Q1015

METARs EXPIRÉS :
  • 210200Z AUTO VRB03KT 6000 -RA FEW009/// SCT016/// BKN021/// ///CB 14/14 Q1015
  • 210130Z AUTO 31004KT 6000 -RA SCT023/// BKN030/// BKN049/// ///TCU 14/14 Q1014
  • 210100Z AUTO 12004KT 9999 BKN023/// OVC052/// ///TCU 14/14 Q1014
  • 210030Z AUTO 30004KT 260V320 9999 -RA BKN020/// BKN026/// OVC054/// ///TCU 14/13 Q1014
  • 210000Z AUTO 32004KT 270V010 9999 3800 RA FEW012/// BKN060/// BKN072/// ///TCU 14/13 Q1014

TAF TAF LFLP
Valide du 21 à 03h jusqu'au 22 à 03h UTC


210200Z 2103/2203 VRB03KT 8000 -RA BKN020 BKN050
TEMPO 2103/2109 2000 +RA BKN006 BKN020TCU
PROB30
TEMPO 2103/2109 1000 +TSRA BKN006 BKN020CB
TEMPO 2109/2124 4000 RA BKN006 OVC020



MET'MAP, la Météo Aéronautique d'un coup d'oeil ! - Copyright ORBIFLY Décembre 2007 - Disclaimer

ORBIFLY MET'MAP TEAM :

Programmation & Développement : Alexandra Zaïnal
Conception & Développement : Baudouin d'Aumeries
Co-Programmation & Développement : Marc-Olivier Méhu
Soutien technique & logistique : Manuel Goepfert

Contact : metmap@orbifly.com




SOURCES & CREDITS :

   NOAA